Rumbley, Maryland
Current Conditions -  °F | °C
As of 10:54 PM on Thursday 20 Nov 2014 (Local Time) from KWAL Reporting Station
Clear Clear  
Wind Chill: 35°   Ceiling: Unl
Heat Index: 39°   Visibility: 10mi
Dew Point: 24°   Wind: 6mph
Humidity: 55%   Direction: 360°N
Pressure: 30.07"   Gusts: NA
Location:  38.0995°N, 75.7422°W
Report Text: KWAL 210354Z AUTO 36005KT 10SM CLR 04/M04 A3007 RMK AO2 SLP180 T00391044 $
Loading
Personal Weather Stations






























Interactive Weather Map New forecast layout! Learn more

10-Day Weather Forecast

Advertisements
Track Severe Weather on mobile